Time;durP1;ratioP1;P1;durP2;ratioP2;P2;SDS_P1;SDS_P2;PMS_P1;PMS_P2;Temp;Humidity;BMP_temperature;BMP_pressure;BME280_temperature;BME280_humidity;BME280_pressure;Samples;Min_cycle;Max_cycle;Signal;HPM_P1;HPM_P2
2023/03/04 00:01:39;;;;;;;6.95;2.65;;;5.50;99.90;;;;;;4955816;28;94234;-30
2023/03/04 00:04:05;;;;;;;8.48;3.72;;;5.50;99.90;;;;;;4955723;28;94989;-29
2023/03/04 00:06:30;;;;;;;8.77;3.20;;;5.50;99.90;;;;;;4956610;28;93053;-28
2023/03/04 00:08:56;;;;;;;6.97;2.75;;;5.50;99.90;;;;;;4956659;28;92236;-28
2023/03/04 00:11:22;;;;;;;9.32;3.13;;;5.50;99.90;;;;;;4955035;28;94826;-27
2023/03/04 00:13:48;;;;;;;15.75;4.40;;;5.50;99.90;;;;;;4956147;28;94583;-28
2023/03/04 00:16:13;;;;;;;4.53;2.95;;;5.50;99.90;;;;;;4954760;28;94634;-29
2023/03/04 00:18:39;;;;;;;8.35;2.88;;;5.50;99.90;;;;;;4957176;28;94192;-30
2023/03/04 00:21:05;;;;;;;10.02;3.45;;;5.50;99.90;;;;;;4958166;28;93870;-27
2023/03/04 00:23:31;;;;;;;11.05;3.85;;;5.50;99.90;;;;;;4958968;28;94179;-33
2023/03/04 00:25:56;;;;;;;15.07;3.00;;;5.60;99.90;;;;;;4958266;28;94714;-29
2023/03/04 00:28:22;;;;;;;11.25;3.22;;;5.60;99.90;;;;;;4958107;28;94182;-31
2023/03/04 00:30:47;;;;;;;9.13;3.20;;;5.60;99.90;;;;;;4959096;28;94842;-30
2023/03/04 00:33:13;;;;;;;9.85;3.45;;;5.50;99.90;;;;;;4959013;28;93452;-26
2023/03/04 00:35:40;;;;;;;5.60;2.40;;;5.60;99.90;;;;;;4958592;28;94446;-30
2023/03/04 00:38:05;;;;;;;4.32;2.95;;;5.50;99.90;;;;;;4958368;28;93342;-29
2023/03/04 00:40:31;;;;;;;13.70;5.45;;;5.60;99.90;;;;;;4957837;28;95320;-30
2023/03/04 00:42:57;;;;;;;12.52;4.05;;;5.50;99.90;;;;;;4958362;28;95282;-29
2023/03/04 00:45:22;;;;;;;13.00;3.17;;;5.50;99.90;;;;;;4957777;28;93463;-30
2023/03/04 00:47:48;;;;;;;10.30;4.38;;;5.50;99.90;;;;;;4958553;28;93617;-31
2023/03/04 00:50:13;;;;;;;12.15;3.38;;;5.50;99.90;;;;;;4957752;28;95258;-28
2023/03/04 00:52:39;;;;;;;7.47;2.38;;;5.50;99.90;;;;;;4958726;28;95468;-30
2023/03/04 00:55:05;;;;;;;7.18;4.03;;;5.50;99.90;;;;;;4958741;28;94084;-30
2023/03/04 00:57:31;;;;;;;8.48;3.28;;;5.50;99.90;;;;;;4958927;28;92004;-30
2023/03/04 00:59:56;;;;;;;9.32;3.22;;;5.50;99.90;;;;;;4958072;28;94468;-29
2023/03/04 01:02:22;;;;;;;14.30;2.30;;;5.60;99.90;;;;;;4957499;28;95688;-28
2023/03/04 01:04:48;;;;;;;6.57;1.95;;;5.60;99.90;;;;;;4957835;28;93872;-28
2023/03/04 01:07:13;;;;;;;8.93;2.75;;;5.50;99.90;;;;;;4956420;28;92176;-29
2023/03/04 01:09:39;;;;;;;4.50;2.67;;;5.50;99.90;;;;;;4958102;28;94927;-29
2023/03/04 01:12:05;;;;;;;8.95;3.17;;;5.50;99.90;;;;;;4957864;28;94352;-28
2023/03/04 01:14:31;;;;;;;14.05;4.45;;;5.50;99.90;;;;;;4958100;28;92643;-28
2023/03/04 01:16:56;;;;;;;3.17;2.42;;;5.50;99.90;;;;;;4958009;28;94657;-31
2023/03/04 01:19:22;;;;;;;8.63;2.70;;;5.50;99.90;;;;;;4957816;28;94852;-31
2023/03/04 01:21:48;;;;;;;5.70;3.03;;;5.50;99.90;;;;;;4957836;28;95195;-29
2023/03/04 01:24:14;;;;;;;13.00;4.22;;;5.50;99.90;;;;;;4958084;28;93374;-30
2023/03/04 01:26:39;;;;;;;6.57;2.72;;;5.50;99.90;;;;;;4958021;28;92172;-30
2023/03/04 01:29:05;;;;;;;13.23;3.45;;;5.60;99.90;;;;;;4957658;28;95159;-30
2023/03/04 01:31:30;;;;;;;10.65;2.83;;;5.60;99.90;;;;;;4957370;28;94439;-29
2023/03/04 01:33:56;;;;;;;14.98;3.17;;;5.50;99.90;;;;;;4958140;28;93105;-28
2023/03/04 01:36:22;;;;;;;3.25;1.58;;;5.60;99.90;;;;;;4957696;28;93344;-30
2023/03/04 01:38:47;;;;;;;5.72;2.65;;;5.50;99.90;;;;;;4957775;28;95106;-27
2023/03/04 01:41:22;;;;;;;12.60;2.30;;;5.50;99.90;;;;;;4958209;28;95112;-29
2023/03/04 01:43:48;;;;;;;6.93;2.08;;;5.50;99.90;;;;;;4958117;28;94532;-29
2023/03/04 01:46:14;;;;;;;7.22;2.90;;;5.50;99.90;;;;;;4957500;28;91394;-32
2023/03/04 01:48:40;;;;;;;9.15;2.70;;;5.50;99.90;;;;;;4957093;28;94375;-30
2023/03/04 01:51:13;;;;;;;2.42;2.05;;;5.40;99.90;;;;;;4956574;28;94850;-31
2023/03/04 01:53:39;;;;;;;6.68;2.45;;;5.40;99.90;;;;;;4957340;28;95442;-32
2023/03/04 01:56:19;;;;;;;2.30;1.73;;;5.40;99.90;;;;;;4957652;28;94267;-26
2023/03/04 01:59:05;;;;;;;10.38;2.25;;;5.50;99.90;;;;;;4957122;28;94304;-31
2023/03/04 02:01:30;;;;;;;8.38;3.25;;;5.50;99.90;;;;;;4957747;28;94918;-28
2023/03/04 02:03:56;;;;;;;16.65;4.15;;;5.50;99.90;;;;;;4956930;28;92643;-29
2023/03/04 02:06:21;;;;;;;8.65;2.47;;;5.50;99.90;;;;;;4957705;28;94999;-28
2023/03/04 02:08:47;;;;;;;5.57;2.30;;;5.50;99.90;;;;;;4956879;28;94886;-31
2023/03/04 02:11:12;;;;;;;7.90;2.40;;;5.50;99.90;;;;;;4947606;28;93914;-28
2023/03/04 02:13:38;;;;;;;3.42;1.67;;;5.40;99.90;;;;;;4957159;28;92613;-31
2023/03/04 02:16:04;;;;;;;14.40;2.78;;;5.40;99.90;;;;;;4956895;28;92452;-28
2023/03/04 02:18:29;;;;;;;3.38;2.45;;;5.40;99.90;;;;;;4956948;28;95658;-29
2023/03/04 02:21:03;;;;;;;10.02;3.00;;;5.40;99.90;;;;;;4956076;28;95396;-31
2023/03/04 02:23:31;;;;;;;8.98;2.95;;;5.40;99.90;;;;;;4957105;28;92101;-29
2023/03/04 02:26:18;;;;;;;4.20;1.95;;;5.40;99.90;;;;;;4957552;28;95100;-27
2023/03/04 02:28:46;;;;;;;4.35;2.03;;;5.40;99.90;;;;;;4945438;28;94889;-31
2023/03/04 02:31:36;;;;;;;18.77;4.18;;;5.40;99.90;;;;;;4956275;28;94491;-31
2023/03/04 02:34:11;;;;;;;15.88;3.58;;;5.40;99.90;;;;;;4951646;28;93347;-29
2023/03/04 02:36:37;;;;;;;4.07;2.25;;;5.50;99.90;;;;;;4956943;28;93147;-28
2023/03/04 02:39:19;;;;;;;5.95;3.08;;;5.50;99.90;;;;;;4957016;28;94803;-28
2023/03/04 02:41:45;;;;;;;10.63;2.90;;;5.50;99.90;;;;;;4956540;28;94724;-31
2023/03/04 02:44:23;;;;;;;9.05;1.95;;;5.50;99.90;;;;;;4956379;28;94224;-28
2023/03/04 02:46:49;;;;;;;4.35;2.35;;;5.40;99.90;;;;;;4944325;28;94756;-27
2023/03/04 02:49:16;;;;;;;14.02;3.70;;;5.40;99.90;;;;;;4955812;28;94924;-29
2023/03/04 02:51:42;;;;;;;9.88;3.15;;;5.40;99.90;;;;;;4956997;28;94560;-28
2023/03/04 02:54:21;;;;;;;3.75;1.88;;;5.40;99.90;;;;;;4956604;28;93657;-29
2023/03/04 02:56:52;;;;;;;6.22;1.77;;;5.40;99.90;;;;;;4946378;28;92096;-32
2023/03/04 02:59:19;;;;;;;3.00;2.22;;;5.40;99.90;;;;;;4956293;28;96652;-29
2023/03/04 03:01:45;;;;;;;9.82;3.10;;;5.40;99.90;;;;;;4956502;28;95023;-28
2023/03/04 03:04:11;;;;;;;11.80;3.65;;;5.40;99.90;;;;;;4957134;28;94249;-30
2023/03/04 03:06:38;;;;;;;15.23;3.65;;;5.30;99.90;;;;;;4956954;28;92927;-30
2023/03/04 03:09:04;;;;;;;5.05;2.38;;;5.30;99.90;;;;;;4955313;28;96405;-29
2023/03/04 03:11:30;;;;;;;6.22;3.28;;;5.30;99.90;;;;;;4957032;28;96173;-29
2023/03/04 03:13:56;;;;;;;7.88;2.53;;;5.30;99.90;;;;;;4956884;28;92201;-29
2023/03/04 03:16:21;;;;;;;10.23;2.83;;;5.30;99.90;;;;;;4956727;28;93355;-30
2023/03/04 03:18:47;;;;;;;3.45;2.55;;;5.30;99.90;;;;;;4956054;28;94551;-29
2023/03/04 03:21:13;;;;;;;15.30;2.90;;;5.20;99.90;;;;;;4938800;28;94201;-28
2023/03/04 03:23:39;;;;;;;4.20;2.53;;;5.30;99.90;;;;;;4956054;28;95248;-31
2023/03/04 03:26:05;;;;;;;6.30;1.65;;;5.20;99.90;;;;;;4956844;28;92587;-31
2023/03/04 03:28:30;;;;;;;3.58;2.80;;;5.30;99.90;;;;;;4956099;28;95011;-29
2023/03/04 03:30:56;;;;;;;7.03;1.63;;;5.20;99.90;;;;;;4956193;28;94637;-27
2023/03/04 03:33:22;;;;;;;5.28;2.78;;;5.20;99.90;;;;;;4955326;28;94684;-27
2023/03/04 03:35:48;;;;;;;8.60;2.72;;;5.20;99.90;;;;;;4956581;28;93307;-28
2023/03/04 03:38:13;;;;;;;4.25;2.78;;;5.20;99.90;;;;;;4955743;28;93520;-28
2023/03/04 03:40:39;;;;;;;4.90;2.38;;;5.20;99.90;;;;;;4956539;28;95117;-32
2023/03/04 03:43:04;;;;;;;3.20;2.45;;;5.20;99.90;;;;;;4955394;28;94030;-30
2023/03/04 03:45:30;;;;;;;7.22;2.50;;;5.20;99.90;;;;;;4955542;28;94153;-32
2023/03/04 03:47:56;;;;;;;9.77;2.38;;;5.20;99.90;;;;;;4956107;28;94274;-28
2023/03/04 03:50:22;;;;;;;9.40;2.55;;;5.10;99.90;;;;;;4955875;28;94587;-28
2023/03/04 03:52:47;;;;;;;12.60;3.08;;;5.20;99.90;;;;;;4956821;28;93377;-28
2023/03/04 03:55:13;;;;;;;15.23;2.25;;;5.20;99.90;;;;;;4958604;28;93038;-30
2023/03/04 03:57:39;;;;;;;3.83;1.88;;;5.20;99.90;;;;;;4958049;28;95134;-30
2023/03/04 04:00:06;;;;;;;5.60;2.05;;;5.10;99.90;;;;;;4959608;28;94783;-29
2023/03/04 04:02:32;;;;;;;7.80;2.42;;;5.10;99.90;;;;;;4959367;28;94639;-30
2023/03/04 04:04:57;;;;;;;13.05;3.92;;;5.10;99.90;;;;;;4960304;28;92855;-29
2023/03/04 04:07:23;;;;;;;3.85;2.63;;;5.10;99.90;;;;;;4958435;28;94210;-31
2023/03/04 04:09:49;;;;;;;5.32;2.40;;;5.10;99.90;;;;;;4958725;28;95049;-30
2023/03/04 04:12:15;;;;;;;3.72;1.52;;;5.10;99.90;;;;;;4959063;28;94441;-28
2023/03/04 04:14:42;;;;;;;15.23;4.38;;;5.10;99.90;;;;;;4959604;28;93392;-30
2023/03/04 04:17:08;;;;;;;6.18;1.38;;;5.10;99.90;;;;;;4959105;28;94745;-30
2023/03/04 04:19:34;;;;;;;8.65;3.25;;;5.10;99.90;;;;;;4959591;28;94339;-28
2023/03/04 04:21:59;;;;;;;6.38;3.35;;;5.10;99.90;;;;;;4957963;28;93684;-29
2023/03/04 04:24:25;;;;;;;10.82;2.50;;;5.10;99.90;;;;;;4959416;28;93634;-29
2023/03/04 04:26:50;;;;;;;7.53;3.03;;;5.10;99.90;;;;;;4958554;28;95151;-29
2023/03/04 04:29:16;;;;;;;4.22;3.17;;;5.10;99.90;;;;;;4959192;28;94616;-31
2023/03/04 04:31:42;;;;;;;5.80;2.95;;;5.10;99.90;;;;;;4958623;28;93638;-29
2023/03/04 04:34:08;;;;;;;13.82;2.60;;;5.10;99.90;;;;;;4958191;28;93760;-31
2023/03/04 04:36:33;;;;;;;5.10;2.13;;;5.10;99.90;;;;;;4958767;28;94423;-28
2023/03/04 04:38:59;;;;;;;10.52;3.28;;;5.10;99.90;;;;;;4958491;28;94522;-31
2023/03/04 04:41:28;;;;;;;11.63;2.63;;;5.00;99.90;;;;;;4959188;28;94367;-32
2023/03/04 04:43:54;;;;;;;9.38;3.17;;;5.10;99.90;;;;;;4958791;28;94383;-27
2023/03/04 04:46:20;;;;;;;7.93;2.67;;;5.10;99.90;;;;;;4957029;28;94705;-32
2023/03/04 04:48:46;;;;;;;6.03;2.05;;;5.00;99.90;;;;;;4958339;28;94994;-30
2023/03/04 04:51:12;;;;;;;4.68;2.42;;;5.00;99.90;;;;;;4958791;28;92763;-29
2023/03/04 04:53:37;;;;;;;5.32;2.72;;;5.00;99.90;;;;;;4958544;28;94627;-28
2023/03/04 04:56:16;;;;;;;5.35;2.00;;;5.00;99.90;;;;;;4957058;28;94554;-29
2023/03/04 04:58:42;;;;;;;5.22;1.95;;;5.00;99.90;;;;;;4958214;28;94985;-29
2023/03/04 05:01:08;;;;;;;6.28;2.70;;;5.00;99.90;;;;;;4958214;28;94549;-29
2023/03/04 05:03:35;;;;;;;6.32;1.75;;;5.00;99.90;;;;;;4959126;28;91375;-29
2023/03/04 05:06:02;;;;;;;5.80;2.67;;;5.00;99.90;;;;;;4956668;28;94700;-31
2023/03/04 05:08:27;;;;;;;14.38;3.97;;;5.00;99.90;;;;;;4957233;28;94183;-30
2023/03/04 05:10:53;;;;;;;6.38;2.13;;;5.00;99.90;;;;;;4957883;28;95295;-29
2023/03/04 05:13:19;;;;;;;3.33;2.08;;;5.00;99.90;;;;;;4958037;28;94387;-30
2023/03/04 05:15:45;;;;;;;9.60;2.30;;;5.00;99.90;;;;;;4958636;28;94816;-30
2023/03/04 05:18:11;;;;;;;12.85;2.55;;;5.00;99.90;;;;;;4957392;28;94678;-30
2023/03/04 05:20:37;;;;;;;6.30;1.80;;;5.00;99.90;;;;;;4958111;28;94703;-27
2023/03/04 05:23:03;;;;;;;5.97;1.52;;;5.00;99.90;;;;;;4957066;28;94671;-31
2023/03/04 05:25:28;;;;;;;5.18;2.05;;;5.00;99.90;;;;;;4957780;28;94546;-28
2023/03/04 05:27:54;;;;;;;3.45;2.13;;;5.00;99.90;;;;;;4957408;28;95100;-30
2023/03/04 05:30:19;;;;;;;5.93;1.75;;;5.00;99.90;;;;;;4958695;28;94460;-30
2023/03/04 05:32:45;;;;;;;2.85;1.95;;;5.00;99.90;;;;;;4957031;28;92262;-30
2023/03/04 05:35:11;;;;;;;4.53;2.55;;;5.00;99.90;;;;;;4957350;28;94959;-28
2023/03/04 05:37:36;;;;;;;8.70;3.50;;;4.90;99.90;;;;;;4957556;28;97199;-29
2023/03/04 05:40:03;;;;;;;9.05;2.15;;;4.90;99.90;;;;;;4958424;28;93254;-29
2023/03/04 05:42:29;;;;;;;3.97;1.95;;;4.90;99.90;;;;;;4957250;28;93453;-29
2023/03/04 05:44:55;;;;;;;5.82;2.28;;;4.90;99.90;;;;;;4957157;28;94791;-30
2023/03/04 05:47:20;;;;;;;8.38;2.13;;;4.90;99.90;;;;;;4957621;28;95370;-28
2023/03/04 05:49:46;;;;;;;6.95;2.47;;;4.80;99.90;;;;;;4958293;28;92909;-29
2023/03/04 05:52:12;;;;;;;10.35;2.47;;;4.80;99.90;;;;;;4957564;28;92576;-30
2023/03/04 05:54:37;;;;;;;8.60;2.13;;;4.80;99.90;;;;;;4957769;28;94574;-29
2023/03/04 05:57:03;;;;;;;7.90;3.25;;;4.80;99.90;;;;;;4955724;28;94177;-27
2023/03/04 05:59:29;;;;;;;3.40;1.73;;;4.80;99.90;;;;;;4958147;28;93080;-29
2023/03/04 06:01:54;;;;;;;21.58;3.55;;;4.80;99.90;;;;;;4956975;28;94677;-29
2023/03/04 06:04:20;;;;;;;3.17;1.77;;;4.80;99.90;;;;;;4956949;28;94464;-29
2023/03/04 06:06:46;;;;;;;3.08;2.17;;;4.80;99.90;;;;;;4957511;28;94539;-29
2023/03/04 06:09:12;;;;;;;10.52;3.35;;;4.80;99.90;;;;;;4957122;28;94419;-31
2023/03/04 06:11:38;;;;;;;7.38;2.58;;;4.80;99.90;;;;;;4957422;28;94774;-29
2023/03/04 06:14:04;;;;;;;4.10;1.63;;;4.80;99.90;;;;;;4956999;28;94875;-30
2023/03/04 06:16:30;;;;;;;4.78;1.88;;;4.80;99.90;;;;;;4957709;28;94388;-32
2023/03/04 06:18:56;;;;;;;6.45;2.67;;;4.80;99.90;;;;;;4956862;28;92275;-30
2023/03/04 06:21:21;;;;;;;4.40;2.03;;;4.80;99.90;;;;;;4956494;28;92719;-29
2023/03/04 06:23:47;;;;;;;3.92;2.00;;;4.80;99.90;;;;;;4956812;28;95960;-29
2023/03/04 06:26:14;;;;;;;3.63;2.00;;;4.80;99.90;;;;;;4956375;28;95622;-27
2023/03/04 06:28:41;;;;;;;13.57;2.50;;;4.80;99.90;;;;;;4957514;28;93203;-30
2023/03/04 06:31:07;;;;;;;5.10;1.63;;;4.80;99.90;;;;;;4956616;28;94490;-29
2023/03/04 06:33:32;;;;;;;3.50;1.85;;;4.80;99.90;;;;;;4956487;28;95016;-29
2023/03/04 06:35:58;;;;;;;4.30;2.42;;;4.80;99.90;;;;;;4957239;28;94287;-28
2023/03/04 06:38:25;;;;;;;17.60;3.40;;;4.80;99.90;;;;;;4956656;28;94008;-30
2023/03/04 06:40:51;;;;;;;11.60;2.42;;;4.80;99.90;;;;;;4957033;28;93232;-26
2023/03/04 06:43:17;;;;;;;4.15;2.35;;;4.80;99.90;;;;;;4955434;28;93815;-28
2023/03/04 06:45:42;;;;;;;3.83;2.58;;;4.80;99.90;;;;;;4946826;28;94347;-30
2023/03/04 06:48:08;;;;;;;3.00;1.73;;;4.90;99.90;;;;;;4956296;28;95390;-30
2023/03/04 06:50:33;;;;;;;1.83;1.55;;;4.80;99.90;;;;;;4957374;28;94794;-30
2023/03/04 06:52:59;;;;;;;2.80;1.50;;;4.90;99.90;;;;;;4955683;28;94827;-28
2023/03/04 06:55:25;;;;;;;8.93;2.97;;;4.90;99.90;;;;;;4957447;28;94820;-30
2023/03/04 06:57:50;;;;;;;7.95;2.47;;;4.90;99.90;;;;;;4956040;28;92819;-28
2023/03/04 07:00:17;;;;;;;6.07;1.85;;;4.90;99.90;;;;;;4957049;28;93551;-29
2023/03/04 07:02:42;;;;;;;2.78;2.10;;;5.00;99.90;;;;;;4956696;28;93223;-30
2023/03/04 07:05:09;;;;;;;4.35;1.92;;;5.00;99.90;;;;;;4955984;28;94529;-31
2023/03/04 07:07:35;;;;;;;8.05;1.88;;;5.00;99.90;;;;;;4956705;28;93080;-28
2023/03/04 07:10:00;;;;;;;7.30;3.05;;;5.00;99.90;;;;;;4956437;28;92213;-33
2023/03/04 07:12:26;;;;;;;8.38;2.42;;;5.10;99.90;;;;;;4956615;28;96167;-27
2023/03/04 07:14:51;;;;;;;9.48;2.47;;;5.10;99.90;;;;;;4956391;28;95683;-31
2023/03/04 07:17:17;;;;;;;6.43;2.15;;;5.10;99.90;;;;;;4955542;28;93109;-29
2023/03/04 07:19:43;;;;;;;7.25;2.92;;;5.20;99.90;;;;;;4956690;28;94725;-27
2023/03/04 07:22:09;;;;;;;5.70;1.83;;;5.20;99.90;;;;;;4955483;28;94805;-27
2023/03/04 07:24:35;;;;;;;5.95;2.15;;;5.20;99.90;;;;;;4947348;28;94591;-31
2023/03/04 07:27:00;;;;;;;2.33;1.70;;;5.20;99.90;;;;;;4956547;28;94015;-33
2023/03/04 07:29:26;;;;;;;4.57;2.63;;;5.20;99.90;;;;;;4958800;28;92277;-29
2023/03/04 07:31:52;;;;;;;4.55;1.48;;;5.30;99.90;;;;;;4958880;28;96726;-30
2023/03/04 07:34:17;;;;;;;6.43;1.52;;;5.40;99.90;;;;;;4959180;28;95259;-29
2023/03/04 07:36:43;;;;;;;6.85;2.15;;;5.40;99.90;;;;;;4958670;28;94243;-30
2023/03/04 07:39:12;;;;;;;3.83;1.65;;;5.50;99.90;;;;;;4956364;28;94767;-32
2023/03/04 07:41:38;;;;;;;3.45;1.48;;;5.50;99.90;;;;;;4957640;28;94241;-29
2023/03/04 07:44:05;;;;;;;3.03;0.90;;;5.60;99.90;;;;;;4956778;28;94209;-29
2023/03/04 07:46:31;;;;;;;1.50;0.93;;;5.60;99.90;;;;;;4958542;28;93230;-29
2023/03/04 07:48:57;;;;;;;4.97;0.93;;;5.60;99.90;;;;;;4956337;28;93542;-27
2023/03/04 07:51:25;;;;;;;4.63;1.30;;;5.70;99.90;;;;;;4956527;28;95207;-31
2023/03/04 07:53:54;;;;;;;7.85;1.63;;;5.80;99.90;;;;;;4957561;28;93987;-28
2023/03/04 07:56:23;;;;;;;11.10;1.98;;;5.80;99.90;;;;;;4958266;28;93131;-29
2023/03/04 07:58:52;;;;;;;7.85;2.15;;;5.80;99.90;;;;;;4957559;28;94051;-28
2023/03/04 08:01:19;;;;;;;;;;;5.80;99.90;;;;;;4955675;28;95882;-30
2023/03/04 08:03:45;;;;;;;3.65;1.48;;;5.90;99.90;;;;;;4957702;28;94978;-29
2023/03/04 08:06:13;;;;;;;3.25;1.98;;;5.90;99.90;;;;;;4958894;28;92553;-28
2023/03/04 08:08:39;;;;;;;4.90;2.45;;;5.90;99.90;;;;;;4957910;28;94146;-31
2023/03/04 08:11:07;;;;;;;3.80;1.10;;;5.90;99.90;;;;;;4957389;28;94726;-30
2023/03/04 08:13:33;;;;;;;2.60;1.37;;;5.90;99.90;;;;;;4957430;28;94945;-28
2023/03/04 08:15:59;;;;;;;4.13;1.55;;;5.90;99.90;;;;;;4957452;28;94619;-29
2023/03/04 08:18:25;;;;;;;4.32;1.50;;;5.90;99.90;;;;;;4956818;28;92533;-31
2023/03/04 08:20:51;;;;;;;4.45;1.27;;;5.90;99.90;;;;;;4957820;28;94588;-29
2023/03/04 08:23:17;;;;;;;8.70;1.40;;;5.90;99.90;;;;;;4959515;28;94361;-28
2023/03/04 08:25:44;;;;;;;5.50;2.05;;;5.90;99.90;;;;;;4957082;28;94674;-31
2023/03/04 08:28:12;;;;;;;1.65;1.48;;;5.90;99.90;;;;;;4956456;28;92984;-29
2023/03/04 08:30:38;;;;;;;5.27;1.97;;;5.90;99.90;;;;;;4957551;28;94239;-28
2023/03/04 08:33:04;;;;;;;9.88;1.88;;;5.90;99.90;;;;;;4955844;28;95684;-30
2023/03/04 08:35:30;;;;;;;11.20;3.60;;;5.90;99.90;;;;;;4957738;28;93195;-27
2023/03/04 08:37:56;;;;;;;6.70;2.10;;;5.90;99.90;;;;;;4957415;28;94656;-31
2023/03/04 08:40:24;;;;;;;2.85;1.85;;;5.90;99.90;;;;;;4954831;28;94683;-31
2023/03/04 08:42:49;;;;;;;14.63;3.97;;;5.90;99.90;;;;;;4956902;28;95578;-29
2023/03/04 08:45:15;;;;;;;10.48;2.22;;;5.90;99.90;;;;;;4930243;28;93489;-31
2023/03/04 08:47:40;;;;;;;8.77;3.40;;;5.90;99.90;;;;;;4936375;28;94363;-28
2023/03/04 08:50:07;;;;;;;3.10;2.28;;;5.90;99.90;;;;;;4956250;28;95268;-29
2023/03/04 08:52:32;;;;;;;6.97;3.97;;;6.00;99.90;;;;;;4956929;28;96546;-28
2023/03/04 08:54:59;;;;;;;13.48;3.13;;;6.00;99.90;;;;;;4957133;28;93238;-29
2023/03/04 08:57:25;;;;;;;8.80;3.40;;;6.00;99.90;;;;;;4956887;28;93088;-30
2023/03/04 08:59:51;;;;;;;18.55;6.22;;;6.00;99.90;;;;;;4955750;28;95278;-28
2023/03/04 09:02:16;;;;;;;13.60;3.22;;;6.00;99.90;;;;;;4956365;28;94591;-32
2023/03/04 09:04:42;;;;;;;5.93;2.72;;;6.10;99.90;;;;;;4956511;28;94402;-31
2023/03/04 09:07:08;;;;;;;17.73;4.10;;;6.10;99.90;;;;;;4956732;28;92259;-28
2023/03/04 09:09:34;;;;;;;6.05;3.05;;;6.20;99.90;;;;;;4956238;28;94170;-28
2023/03/04 09:12:00;;;;;;;25.80;3.63;;;6.30;99.90;;;;;;4957780;28;94802;-32
2023/03/04 09:14:26;;;;;;;16.73;3.60;;;6.30;99.90;;;;;;4958993;28;93447;-27
2023/03/04 09:16:52;;;;;;;8.88;3.88;;;6.40;99.90;;;;;;4955792;28;94207;-27
2023/03/04 09:19:18;;;;;;;9.10;4.57;;;6.40;99.90;;;;;;4956134;28;94770;-31
2023/03/04 09:21:43;;;;;;;11.02;3.50;;;6.40;99.90;;;;;;4941598;28;95993;-31
2023/03/04 09:24:09;;;;;;;19.73;3.92;;;6.60;99.90;;;;;;4955654;28;93958;-31
2023/03/04 09:26:34;;;;;;;18.38;4.88;;;6.70;99.90;;;;;;4955719;28;93504;-28
2023/03/04 09:29:01;;;;;;;10.30;4.00;;;6.60;99.90;;;;;;4956201;28;94825;-29
2023/03/04 09:31:28;;;;;;;17.23;4.70;;;6.60;99.90;;;;;;4956118;28;96892;-31
2023/03/04 09:33:56;;;;;;;9.10;2.97;;;6.70;99.90;;;;;;4956220;28;93358;-27
2023/03/04 09:36:22;;;;;;;10.30;4.55;;;6.70;99.90;;;;;;4955488;28;93376;-28
2023/03/04 09:38:48;;;;;;;11.82;3.88;;;6.70;99.90;;;;;;4955456;28;95875;-30
2023/03/04 09:41:46;;;;;;;8.02;3.67;;;6.70;99.90;;;;;;4955658;28;95475;-26
2023/03/04 09:44:35;;;;;;;7.90;3.05;;;6.80;99.90;;;;;;4955420;28;93151;-28
2023/03/04 09:47:15;;;;;;;12.38;3.58;;;6.80;99.90;;;;;;4945217;28;94180;-29
2023/03/04 09:49:44;;;;;;;10.45;3.80;;;6.90;99.90;;;;;;4955430;28;94416;-28
2023/03/04 09:52:47;;;;;;;9.10;4.32;;;6.90;99.90;;;;;;4937584;28;93541;-28
2023/03/04 09:55:30;;;;;;;12.00;4.30;;;7.00;99.90;;;;;;4955515;28;93676;-28
2023/03/04 09:57:59;;;;;;;15.13;3.53;;;7.10;99.90;;;;;;4955553;28;92671;-30
2023/03/04 10:00:46;;;;;;;13.48;3.67;;;7.20;99.90;;;;;;4955783;28;93901;-29
2023/03/04 10:03:18;;;;;;;10.40;3.67;;;7.20;99.90;;;;;;4955255;28;94603;-31
2023/03/04 10:06:08;;;;;;;13.43;4.43;;;7.20;99.90;;;;;;4955449;28;93200;-28
2023/03/04 10:08:53;;;;;;;9.55;3.03;;;7.20;99.90;;;;;;4954852;28;93877;-32
2023/03/04 10:11:24;;;;;;;14.45;3.45;;;7.20;99.90;;;;;;4927882;28;93448;-27
2023/03/04 10:13:56;;;;;;;9.25;3.65;;;7.10;99.90;;;;;;4955216;28;94567;-28
2023/03/04 10:16:28;;;;;;;8.32;3.10;;;7.10;99.90;;;;;;4955230;28;92712;-29
2023/03/04 10:19:00;;;;;;;7.75;2.92;;;7.00;99.90;;;;;;4954776;28;94093;-28
2023/03/04 10:21:33;;;;;;;8.20;1.90;;;7.00;99.90;;;;;;4955064;28;95392;-27
2023/03/04 10:24:08;;;;;;;6.45;2.35;;;6.80;99.90;;;;;;4955155;28;94391;-29
2023/03/04 10:26:35;;;;;;;6.60;2.35;;;6.70;99.90;;;;;;4954839;28;93171;-28
2023/03/04 10:29:03;;;;;;;5.63;1.70;;;6.60;99.90;;;;;;4954221;28;92243;-32
2023/03/04 10:31:35;;;;;;;6.80;2.45;;;6.60;99.90;;;;;;4954312;28;95631;-30
2023/03/04 10:34:03;;;;;;;3.72;1.20;;;6.60;99.90;;;;;;4954445;28;94804;-28
2023/03/04 10:36:35;;;;;;;3.33;1.47;;;6.70;99.90;;;;;;4954338;28;93941;-29
2023/03/04 10:39:20;;;;;;;5.10;2.17;;;6.80;99.90;;;;;;4954267;28;93357;-31
2023/03/04 10:41:57;;;;;;;9.07;2.33;;;7.00;99.90;;;;;;4954308;28;95880;-30
2023/03/04 10:44:24;;;;;;;12.63;1.97;;;7.20;99.90;;;;;;4953868;28;94153;-32
2023/03/04 10:46:53;;;;;;;4.60;2.58;;;7.20;99.90;;;;;;4955790;28;93241;-29
2023/03/04 10:49:19;;;;;;;4.22;2.35;;;7.60;99.90;;;;;;4954543;28;92785;-29
2023/03/04 10:52:02;;;;;;;11.23;1.40;;;7.90;99.90;;;;;;4953776;28;93298;-28
2023/03/04 10:54:35;;;;;;;3.72;1.30;;;8.10;99.90;;;;;;4953788;28;95798;-28
2023/03/04 10:57:14;;;;;;;1.55;1.10;;;7.80;99.90;;;;;;4954748;28;95221;-30
2023/03/04 10:59:45;;;;;;;3.97;2.13;;;7.70;99.90;;;;;;4954423;28;93073;-31
2023/03/04 11:02:35;;;;;;;3.45;1.60;;;7.60;99.90;;;;;;4936358;28;94882;-31
2023/03/04 11:05:24;;;;;;;5.65;2.60;;;7.30;99.90;;;;;;4952935;28;94592;-32
2023/03/04 11:07:59;;;;;;;8.27;2.85;;;7.10;99.90;;;;;;4937425;28;93079;-31
2023/03/04 11:10:37;;;;;;;11.45;3.42;;;6.90;99.90;;;;;;4953926;28;93792;-30
2023/03/04 11:13:21;;;;;;;11.15;2.55;;;6.80;99.90;;;;;;4954213;28;94710;-28
2023/03/04 11:15:59;;;;;;;9.18;3.80;;;6.90;99.90;;;;;;4924389;28;96223;-31
2023/03/04 11:18:37;;;;;;;19.93;4.27;;;6.90;99.90;;;;;;4936693;28;92788;-28
2023/03/04 11:21:02;;;;;;;15.55;3.33;;;7.00;99.90;;;;;;4953983;28;93227;-30
2023/03/04 11:23:57;;;;;;;8.70;3.00;;;7.10;99.90;;;;;;4953737;28;95950;-31
2023/03/04 11:26:44;;;;;;;10.85;3.88;;;7.20;99.90;;;;;;4953318;28;95420;-31
2023/03/04 11:29:24;;;;;;;8.15;2.72;;;7.30;99.90;;;;;;4954663;28;94492;-28
2023/03/04 11:31:56;;;;;;;12.10;3.15;;;7.40;99.90;;;;;;4947308;28;92249;-28
2023/03/04 11:34:55;;;;;;;7.72;2.63;;;7.40;99.90;;;;;;4948383;28;94990;-29
2023/03/04 11:37:44;;;;;;;13.27;3.55;;;7.50;99.90;;;;;;4954767;28;94510;-31
2023/03/04 11:40:44;;;;;;;6.32;3.72;;;7.50;99.90;;;;;;4953711;28;93835;-29
2023/03/04 11:46:06;;;;;;;11.05;2.10;;;7.50;99.90;;;;;;4911901;28;95335;-32
2023/03/04 11:48:44;;;;;;;8.05;2.40;;;7.50;99.90;;;;;;4913421;28;94974;-28
2023/03/04 11:51:19;;;;;;;12.82;3.45;;;7.60;99.90;;;;;;4913100;28;94839;-32
2023/03/04 11:54:15;;;;;;;7.45;2.50;;;7.60;99.90;;;;;;4914891;28;93696;-30
2023/03/04 11:56:46;;;;;;;18.73;4.38;;;7.80;99.90;;;;;;4904309;28;94565;-31
2023/03/04 11:59:49;;;;;;;12.50;3.85;;;7.80;99.90;;;;;;4914047;28;94624;-32
2023/03/04 12:02:19;;;;;;;13.35;4.13;;;7.90;99.90;;;;;;4894677;28;94608;-31
2023/03/04 12:04:57;;;;;;;5.30;3.40;;;8.00;99.90;;;;;;4913267;28;92975;-31
2023/03/04 12:07:25;;;;;;;11.50;2.50;;;8.10;99.90;;;;;;4914668;28;95825;-31
2023/03/04 12:10:30;;;;;;;15.10;3.72;;;8.10;99.90;;;;;;4918046;28;95250;-32
2023/03/04 12:13:13;;;;;;;8.88;3.50;;;7.90;99.90;;;;;;4910535;28;92784;-32
2023/03/04 12:15:51;;;;;;;5.25;2.70;;;7.90;99.90;;;;;;4920618;28;93841;-32
2023/03/04 12:18:41;;;;;;;6.43;3.20;;;7.90;99.90;;;;;;4918719;28;97366;-30
2023/03/04 12:21:19;;;;;;;6.30;2.72;;;8.10;99.90;;;;;;4926198;28;95397;-29
2023/03/04 12:23:54;;;;;;;10.63;3.60;;;8.10;99.90;;;;;;4926237;28;93133;-30
2023/03/04 12:26:41;;;;;;;6.78;2.60;;;8.20;99.90;;;;;;4919142;28;94053;-33
2023/03/04 12:29:18;;;;;;;4.63;2.67;;;8.30;99.90;;;;;;4921704;28;95093;-30
2023/03/04 12:32:08;;;;;;;6.95;2.33;;;8.20;99.90;;;;;;4920903;28;94778;-31
2023/03/04 12:34:59;;;;;;;10.23;2.25;;;8.20;99.90;;;;;;4914371;28;92894;-31
2023/03/04 12:37:34;;;;;;;3.65;2.45;;;8.10;99.90;;;;;;4921194;28;92092;-30
2023/03/04 12:40:05;;;;;;;8.45;2.20;;;8.20;99.90;;;;;;4917525;28;95093;-31
2023/03/04 12:42:40;;;;;;;8.68;2.25;;;8.00;99.90;;;;;;4917044;28;94573;-32
2023/03/04 12:45:38;;;;;;;9.30;2.38;;;8.00;99.90;;;;;;4930723;28;94566;-30
2023/03/04 12:48:22;;;;;;;10.32;3.13;;;8.00;99.90;;;;;;4917085;28;93029;-29
2023/03/04 12:51:01;;;;;;;3.75;1.83;;;8.00;99.90;;;;;;4925069;28;95549;-32
2023/03/04 12:53:53;;;;;;;5.40;2.42;;;8.10;99.90;;;;;;4916660;28;94630;-33
2023/03/04 12:56:26;;;;;;;6.65;2.90;;;8.10;99.90;;;;;;4916653;28;94844;-30
2023/03/04 12:58:52;;;;;;;4.75;2.20;;;8.10;99.90;;;;;;4917016;28;92657;-32
2023/03/04 13:01:24;;;;;;;10.32;2.33;;;8.00;99.90;;;;;;4904448;28;94339;-31
2023/03/04 13:04:08;;;;;;;10.95;2.63;;;7.90;99.90;;;;;;4916631;28;94886;-31
2023/03/04 13:06:53;;;;;;;10.57;3.38;;;7.80;99.90;;;;;;4917862;28;94359;-29
2023/03/04 13:09:24;;;;;;;4.57;3.03;;;7.90;99.90;;;;;;4917564;28;93489;-30
2023/03/04 13:12:00;;;;;;;6.28;2.42;;;7.90;99.90;;;;;;4919542;28;95476;-29